sensor_id;sensor_type;location;lat;lon;timestamp;pressure;altitude;pressure_sealevel;temperature;humidity
3132;BME280;62090;52.330;9.104;2022-10-16T00:01:33;100512.84;;;14.86;91.51
3132;BME280;62090;52.330;9.104;2022-10-16T00:04:03;100529.09;;;14.89;91.49
3132;BME280;62090;52.330;9.104;2022-10-16T00:06:35;100530.84;;;14.95;91.77
3132;BME280;62090;52.330;9.104;2022-10-16T00:09:06;100526.53;;;14.88;91.98
3132;BME280;62090;52.330;9.104;2022-10-16T00:11:39;100525.69;;;14.92;91.98
3132;BME280;62090;52.330;9.104;2022-10-16T00:14:11;100541.91;;;14.78;92.70
3132;BME280;62090;52.330;9.104;2022-10-16T00:16:42;100541.03;;;14.81;93.40
3132;BME280;62090;52.330;9.104;2022-10-16T00:19:12;100504.19;;;14.59;93.49
3132;BME280;62090;52.330;9.104;2022-10-16T00:21:45;100541.03;;;14.81;94.32
3132;BME280;62090;52.330;9.104;2022-10-16T00:24:33;100547.84;;;14.73;95.12
3132;BME280;62090;52.330;9.104;2022-10-16T00:27:03;100535.00;;;14.70;95.25
3132;BME280;62090;52.330;9.104;2022-10-16T00:29:32;100546.13;;;14.69;95.52
3132;BME280;62090;52.330;9.104;2022-10-16T00:32:03;100540.13;;;14.64;96.28
3132;BME280;62090;52.330;9.104;2022-10-16T00:34:32;100551.28;;;14.75;96.19
3132;BME280;62090;52.330;9.104;2022-10-16T00:37:05;100554.69;;;14.74;96.45
3132;BME280;62090;52.330;9.104;2022-10-16T00:39:35;100534.13;;;14.63;97.29
3132;BME280;62090;52.330;9.104;2022-10-16T00:42:05;100552.13;;;14.72;97.47
3132;BME280;62090;52.330;9.104;2022-10-16T00:44:44;100544.41;;;14.68;97.50
3132;BME280;62090;52.330;9.104;2022-10-16T00:47:19;100542.69;;;14.70;98.37
3132;BME280;62090;52.330;9.104;2022-10-16T00:49:51;100522.97;;;14.55;98.56
3132;BME280;62090;52.330;9.104;2022-10-16T00:52:25;100545.25;;;14.65;99.19
3132;BME280;62090;52.330;9.104;2022-10-16T00:54:56;100514.38;;;14.38;99.62
3132;BME280;62090;52.330;9.104;2022-10-16T00:57:26;100520.38;;;14.48;99.84
3132;BME280;62090;52.330;9.104;2022-10-16T00:59:57;100541.88;;;14.74;99.67
3132;BME280;62090;52.330;9.104;2022-10-16T01:02:27;100468.94;;;14.23;100.00
3132;BME280;62090;52.330;9.104;2022-10-16T01:04:57;100552.13;;;14.74;100.00
3132;BME280;62090;52.330;9.104;2022-10-16T01:07:39;100552.16;;;14.80;99.93
3132;BME280;62090;52.330;9.104;2022-10-16T01:10:20;100546.16;;;14.75;100.00
3132;BME280;62090;52.330;9.104;2022-10-16T01:12:57;100552.09;;;14.66;100.00
3132;BME280;62090;52.330;9.104;2022-10-16T01:15:32;100540.97;;;14.66;100.00
3132;BME280;62090;52.330;9.104;2022-10-16T01:18:28;100548.69;;;14.72;100.00
3132;BME280;62090;52.330;9.104;2022-10-16T01:21:03;100540.94;;;14.57;100.00
3132;BME280;62090;52.330;9.104;2022-10-16T01:23:46;100560.69;;;14.77;100.00
3132;BME280;62090;52.330;9.104;2022-10-16T01:26:33;100558.09;;;14.70;100.00
3132;BME280;62090;52.330;9.104;2022-10-16T01:29:12;100559.66;;;14.44;100.00
3132;BME280;62090;52.330;9.104;2022-10-16T01:31:48;100552.84;;;14.46;100.00
3132;BME280;62090;52.330;9.104;2022-10-16T01:34:22;100570.84;;;14.55;100.00
3132;BME280;62090;52.330;9.104;2022-10-16T01:36:57;100563.97;;;14.48;100.00
3132;BME280;62090;52.330;9.104;2022-10-16T01:39:34;100545.88;;;14.29;100.00
3132;BME280;62090;52.330;9.104;2022-10-16T01:42:08;100512.50;;;14.19;100.00
3132;BME280;62090;52.330;9.104;2022-10-16T01:44:43;100533.91;;;14.28;100.00
3132;BME280;62090;52.330;9.104;2022-10-16T01:47:15;100572.47;;;14.38;100.00
3132;BME280;62090;52.330;9.104;2022-10-16T01:49:47;100551.88;;;14.34;100.00
3132;BME280;62090;52.330;9.104;2022-10-16T01:52:22;100557.94;;;14.40;100.00
3132;BME280;62090;52.330;9.104;2022-10-16T01:54:55;100563.09;;;14.43;100.00
3132;BME280;62090;52.330;9.104;2022-10-16T01:57:27;100551.88;;;14.33;100.00
3132;BME280;62090;52.330;9.104;2022-10-16T02:00:07;100559.63;;;14.39;100.00
3132;BME280;62090;52.330;9.104;2022-10-16T02:02:39;100563.91;;;14.38;100.00
3132;BME280;62090;52.330;9.104;2022-10-16T02:05:14;100573.34;;;14.46;100.00
3132;BME280;62090;52.330;9.104;2022-10-16T02:07:47;100580.22;;;14.48;100.00
3132;BME280;62090;52.330;9.104;2022-10-16T02:10:17;100567.31;;;14.39;100.00
3132;BME280;62090;52.330;9.104;2022-10-16T02:12:50;100579.34;;;14.49;100.00
3132;BME280;62090;52.330;9.104;2022-10-16T02:15:24;100549.31;;;14.31;100.00
3132;BME280;62090;52.330;9.104;2022-10-16T02:17:53;100566.53;;;14.43;100.00
3132;BME280;62090;52.330;9.104;2022-10-16T02:20:26;100579.38;;;14.51;100.00
3132;BME280;62090;52.330;9.104;2022-10-16T02:22:57;100576.81;;;14.51;100.00
3132;BME280;62090;52.330;9.104;2022-10-16T02:25:30;100576.81;;;14.51;100.00
3132;BME280;62090;52.330;9.104;2022-10-16T02:28:03;100582.75;;;14.47;100.00
3132;BME280;62090;52.330;9.104;2022-10-16T02:30:42;100573.31;;;14.40;100.00
3132;BME280;62090;52.330;9.104;2022-10-16T02:33:16;100538.16;;;14.23;100.00
3132;BME280;62090;52.330;9.104;2022-10-16T02:35:48;100566.38;;;14.26;100.00
3132;BME280;62090;52.330;9.104;2022-10-16T02:38:20;100574.75;;;14.07;100.00
3132;BME280;62090;52.330;9.104;2022-10-16T02:40:50;100556.78;;;14.01;100.00
3132;BME280;62090;52.330;9.104;2022-10-16T02:43:20;100561.94;;;14.04;100.00
3132;BME280;62090;52.330;9.104;2022-10-16T02:45:53;100574.09;;;14.32;100.00
3132;BME280;62090;52.330;9.104;2022-10-16T02:48:23;100561.28;;;14.32;100.00
3132;BME280;62090;52.330;9.104;2022-10-16T02:50:53;100575.06;;;14.50;100.00
3132;BME280;62090;52.330;9.104;2022-10-16T02:53:23;100572.50;;;14.47;100.00
3132;BME280;62090;52.330;9.104;2022-10-16T02:55:53;100534.66;;;14.09;100.00
3132;BME280;62090;52.330;9.104;2022-10-16T02:58:23;100569.03;;;14.37;100.00
3132;BME280;62090;52.330;9.104;2022-10-16T03:00:55;100568.97;;;14.31;100.00
3132;BME280;62090;52.330;9.104;2022-10-16T03:03:25;100568.97;;;14.34;100.00
3132;BME280;62090;52.330;9.104;2022-10-16T03:05:55;100582.72;;;14.41;100.00
3132;BME280;62090;52.330;9.104;2022-10-16T03:08:25;100580.03;;;14.25;100.00
3132;BME280;62090;52.330;9.104;2022-10-16T03:10:55;100592.78;;;14.18;100.00
3132;BME280;62090;52.330;9.104;2022-10-16T03:13:27;100591.97;;;14.20;100.00
3132;BME280;62090;52.330;9.104;2022-10-16T03:15:59;100583.38;;;14.15;100.00
3132;BME280;62090;52.330;9.104;2022-10-16T03:18:29;100579.09;;;14.11;100.00
3132;BME280;62090;52.330;9.104;2022-10-16T03:20:59;100572.28;;;14.18;100.00
3132;BME280;62090;52.330;9.104;2022-10-16T03:23:29;100575.72;;;14.17;100.00
3132;BME280;62090;52.330;9.104;2022-10-16T03:25:59;100564.44;;;13.98;100.00
3132;BME280;62090;52.330;9.104;2022-10-16T03:28:29;100584.94;;;13.98;100.00
3132;BME280;62090;52.330;9.104;2022-10-16T03:31:01;100581.31;;;13.75;100.00
3132;BME280;62090;52.330;9.104;2022-10-16T03:33:31;100573.50;;;13.60;100.00
3132;BME280;62090;52.330;9.104;2022-10-16T03:36:01;100579.53;;;13.65;100.00
3132;BME280;62090;52.330;9.104;2022-10-16T03:38:31;100561.47;;;13.49;100.00
3132;BME280;62090;52.330;9.104;2022-10-16T03:41:00;100564.97;;;13.59;100.00
3132;BME280;62090;52.330;9.104;2022-10-16T03:43:30;100582.09;;;13.66;100.00
3132;BME280;62090;52.330;9.104;2022-10-16T03:46:03;100558.09;;;13.55;100.00
3132;BME280;62090;52.330;9.104;2022-10-16T03:48:33;100572.81;;;13.74;100.00
3132;BME280;62090;52.330;9.104;2022-10-16T03:51:03;100588.28;;;13.85;100.00
3132;BME280;62090;52.330;9.104;2022-10-16T03:53:33;100602.72;;;13.81;100.00
3132;BME280;62090;52.330;9.104;2022-10-16T03:56:02;100593.41;;;13.85;100.00
3132;BME280;62090;52.330;9.104;2022-10-16T03:58:32;100597.69;;;13.92;100.00
3132;BME280;62090;52.330;9.104;2022-10-16T04:01:05;100596.81;;;13.87;100.00
3132;BME280;62090;52.330;9.104;2022-10-16T04:03:34;100605.31;;;13.83;100.00
3132;BME280;62090;52.330;9.104;2022-10-16T04:06:05;100616.44;;;13.85;100.00
3132;BME280;62090;52.330;9.104;2022-10-16T04:08:35;100612.19;;;13.87;100.00
3132;BME280;62090;52.330;9.104;2022-10-16T04:11:05;100594.19;;;13.81;100.00
3132;BME280;62090;52.330;9.104;2022-10-16T04:13:36;100598.59;;;13.94;100.00
3132;BME280;62090;52.330;9.104;2022-10-16T04:16:08;100607.22;;;14.05;100.00
3132;BME280;62090;52.330;9.104;2022-10-16T04:18:38;100602.09;;;14.08;100.00
3132;BME280;62090;52.330;9.104;2022-10-16T04:21:08;100597.84;;;14.06;100.00
3132;BME280;62090;52.330;9.104;2022-10-16T04:23:38;100560.81;;;13.72;100.00
3132;BME280;62090;52.330;9.104;2022-10-16T04:26:08;100618.34;;;14.09;100.00
3132;BME280;62090;52.330;9.104;2022-10-16T04:28:37;100624.34;;;14.09;100.00
3132;BME280;62090;52.330;9.104;2022-10-16T04:31:10;100621.00;;;14.19;100.00
3132;BME280;62090;52.330;9.104;2022-10-16T04:33:42;100621.00;;;14.19;100.00
3132;BME280;62090;52.330;9.104;2022-10-16T04:36:13;100595.31;;;14.13;100.00
3132;BME280;62090;52.330;9.104;2022-10-16T04:38:43;100609.94;;;14.28;100.00
3132;BME280;62090;52.330;9.104;2022-10-16T04:41:12;100611.69;;;14.33;100.00
3132;BME280;62090;52.330;9.104;2022-10-16T04:43:42;100611.81;;;14.46;100.00
3132;BME280;62090;52.330;9.104;2022-10-16T04:46:14;100609.25;;;14.43;100.00
3132;BME280;62090;52.330;9.104;2022-10-16T04:48:44;100621.28;;;14.56;100.00
3132;BME280;62090;52.330;9.104;2022-10-16T04:51:14;100620.44;;;14.57;100.00
3132;BME280;62090;52.330;9.104;2022-10-16T04:53:45;100633.31;;;14.70;100.00
3132;BME280;62090;52.330;9.104;2022-10-16T04:56:15;100624.78;;;14.70;100.00
3132;BME280;62090;52.330;9.104;2022-10-16T04:58:45;100639.38;;;14.78;100.00
3132;BME280;62090;52.330;9.104;2022-10-16T05:01:17;100640.28;;;14.85;100.00
3132;BME280;62090;52.330;9.104;2022-10-16T05:03:47;100646.25;;;14.86;100.00
3132;BME280;62090;52.330;9.104;2022-10-16T05:06:17;100649.69;;;14.88;100.00
3132;BME280;62090;52.330;9.104;2022-10-16T05:08:46;100646.28;;;14.89;100.00
3132;BME280;62090;52.330;9.104;2022-10-16T05:11:16;100633.38;;;14.81;100.00
3132;BME280;62090;52.330;9.104;2022-10-16T05:13:46;100650.56;;;14.94;99.94
3132;BME280;62090;52.330;9.104;2022-10-16T05:16:24;100652.28;;;14.95;99.84
3132;BME280;62090;52.330;9.104;2022-10-16T05:18:54;100618.00;;;14.79;99.93
3132;BME280;62090;52.330;9.104;2022-10-16T05:21:44;100634.28;;;14.85;99.93
3132;BME280;62090;52.330;9.104;2022-10-16T05:24:14;100650.56;;;14.94;99.98
3132;BME280;62090;52.330;9.104;2022-10-16T05:26:43;100651.41;;;14.92;100.00
3132;BME280;62090;52.330;9.104;2022-10-16T05:29:13;100642.84;;;14.88;100.00
3132;BME280;62090;52.330;9.104;2022-10-16T05:31:46;100646.31;;;14.95;99.94
3132;BME280;62090;52.330;9.104;2022-10-16T05:34:16;100646.28;;;14.92;99.97
3132;BME280;62090;52.330;9.104;2022-10-16T05:36:45;100647.94;;;14.79;100.00
3132;BME280;62090;52.330;9.104;2022-10-16T05:39:15;100648.75;;;14.76;100.00
3132;BME280;62090;52.330;9.104;2022-10-16T05:41:45;100631.56;;;14.65;100.00
3132;BME280;62090;52.330;9.104;2022-10-16T05:44:15;100653.06;;;14.79;100.00
3132;BME280;62090;52.330;9.104;2022-10-16T05:46:48;100652.19;;;14.78;100.00
3132;BME280;62090;52.330;9.104;2022-10-16T05:49:18;100647.03;;;14.74;100.00
3132;BME280;62090;52.330;9.104;2022-10-16T05:51:48;100643.59;;;14.69;100.00
3132;BME280;62090;52.330;9.104;2022-10-16T05:54:18;100641.03;;;14.72;100.00
3132;BME280;62090;52.330;9.104;2022-10-16T05:56:48;100634.19;;;14.68;100.00
3132;BME280;62090;52.330;9.104;2022-10-16T05:59:18;100618.72;;;14.53;100.00
3132;BME280;62090;52.330;9.104;2022-10-16T06:01:50;100651.25;;;14.66;100.00
3132;BME280;62090;52.330;9.104;2022-10-16T06:04:20;100661.47;;;14.58;100.00
3132;BME280;62090;52.330;9.104;2022-10-16T06:06:50;100668.28;;;14.55;100.00
3132;BME280;62090;52.330;9.104;2022-10-16T06:09:19;100679.47;;;14.63;100.00
3132;BME280;62090;52.330;9.104;2022-10-16T06:11:49;100672.59;;;14.60;100.00
3132;BME280;62090;52.330;9.104;2022-10-16T06:14:19;100690.72;;;14.88;100.00
3132;BME280;62090;52.330;9.104;2022-10-16T06:16:51;100701.03;;;14.94;100.00
3132;BME280;62090;52.330;9.104;2022-10-16T06:19:21;100698.53;;;15.04;100.00
3132;BME280;62090;52.330;9.104;2022-10-16T06:21:52;100690.00;;;15.05;100.00
3132;BME280;62090;52.330;9.104;2022-10-16T06:24:23;100697.78;;;15.25;99.98
3132;BME280;62090;52.330;9.104;2022-10-16T06:26:54;100692.59;;;15.19;100.00
3132;BME280;62090;52.330;9.104;2022-10-16T06:29:24;100657.44;;;14.98;99.95
3132;BME280;62090;52.330;9.104;2022-10-16T06:31:57;100696.91;;;15.21;100.00
3132;BME280;62090;52.330;9.104;2022-10-16T06:34:27;100689.13;;;15.08;100.00
3132;BME280;62090;52.330;9.104;2022-10-16T06:36:57;100693.44;;;15.10;100.00
3132;BME280;62090;52.330;9.104;2022-10-16T06:39:28;100684.84;;;15.01;100.00
3132;BME280;62090;52.330;9.104;2022-10-16T06:41:59;100699.44;;;15.11;100.00
3132;BME280;62090;52.330;9.104;2022-10-16T06:44:36;100710.59;;;15.23;100.00
3132;BME280;62090;52.330;9.104;2022-10-16T06:47:09;100711.47;;;15.26;100.00
3132;BME280;62090;52.330;9.104;2022-10-16T06:49:41;100700.34;;;15.27;100.00
3132;BME280;62090;52.330;9.104;2022-10-16T06:52:10;100707.09;;;15.09;100.00
3132;BME280;62090;52.330;9.104;2022-10-16T06:54:40;100703.75;;;15.16;100.00
3132;BME280;62090;52.330;9.104;2022-10-16T06:57:10;100706.31;;;15.16;100.00
3132;BME280;62090;52.330;9.104;2022-10-16T06:59:40;100709.66;;;15.05;100.00
3132;BME280;62090;52.330;9.104;2022-10-16T07:02:15;100719.97;;;15.11;100.00
3132;BME280;62090;52.330;9.104;2022-10-16T07:04:45;100711.38;;;15.07;100.00
3132;BME280;62090;52.330;9.104;2022-10-16T07:07:15;100734.53;;;15.19;100.00
3132;BME280;62090;52.330;9.104;2022-10-16T07:09:45;100738.03;;;15.32;100.00
3132;BME280;62090;52.330;9.104;2022-10-16T07:12:15;100699.44;;;15.18;100.00
3132;BME280;62090;52.330;9.104;2022-10-16T07:14:45;100742.41;;;15.48;100.00
3132;BME280;62090;52.330;9.104;2022-10-16T07:17:18;100748.47;;;15.59;100.00
3132;BME280;62090;52.330;9.104;2022-10-16T07:19:48;100734.66;;;15.41;100.00
3132;BME280;62090;52.330;9.104;2022-10-16T07:22:21;100740.66;;;15.43;100.00
3132;BME280;62090;52.330;9.104;2022-10-16T07:24:51;100754.44;;;15.60;100.00
3132;BME280;62090;52.330;9.104;2022-10-16T07:27:23;100763.06;;;15.71;100.00
3132;BME280;62090;52.330;9.104;2022-10-16T07:29:53;100763.06;;;15.76;100.00
3132;BME280;62090;52.330;9.104;2022-10-16T07:32:25;100744.22;;;15.69;98.72
3132;BME280;62090;52.330;9.104;2022-10-16T07:34:55;100756.22;;;15.76;98.39
3132;BME280;62090;52.330;9.104;2022-10-16T07:37:25;100785.44;;;15.95;98.25
3132;BME280;62090;52.330;9.104;2022-10-16T07:39:56;100797.44;;;16.05;97.87
3132;BME280;62090;52.330;9.104;2022-10-16T07:42:27;100800.91;;;16.15;97.42
3132;BME280;62090;52.330;9.104;2022-10-16T07:44:58;100753.72;;;15.97;96.98
3132;BME280;62090;52.330;9.104;2022-10-16T07:47:31;100731.41;;;15.87;96.38
3132;BME280;62090;52.330;9.104;2022-10-16T07:50:02;100796.66;;;16.41;95.84
3132;BME280;62090;52.330;9.104;2022-10-16T07:52:33;100770.06;;;16.16;95.69
3132;BME280;62090;52.330;9.104;2022-10-16T07:55:03;100778.63;;;16.18;95.78
3132;BME280;62090;52.330;9.104;2022-10-16T07:57:33;100821.53;;;16.39;94.84
3132;BME280;62090;52.330;9.104;2022-10-16T08:00:05;100823.22;;;16.34;95.47
3132;BME280;62090;52.330;9.104;2022-10-16T08:02:42;100824.91;;;16.17;95.14
3132;BME280;62090;52.330;9.104;2022-10-16T08:05:12;100840.28;;;16.08;95.51
3132;BME280;62090;52.330;9.104;2022-10-16T08:07:42;100839.44;;;16.13;96.18
3132;BME280;62090;52.330;9.104;2022-10-16T08:10:16;100837.78;;;16.17;96.27
3132;BME280;62090;52.330;9.104;2022-10-16T08:12:46;100799.97;;;15.88;95.72
3132;BME280;62090;52.330;9.104;2022-10-16T08:15:17;100849.78;;;16.18;96.70
3132;BME280;62090;52.330;9.104;2022-10-16T08:17:57;100837.81;;;16.39;95.46
3132;BME280;62090;52.330;9.104;2022-10-16T08:20:28;100854.13;;;16.47;95.30
3132;BME280;62090;52.330;9.104;2022-10-16T08:22:59;100851.56;;;16.51;93.20
3132;BME280;62090;52.330;9.104;2022-10-16T08:25:29;100867.91;;;16.71;95.16
3132;BME280;62090;52.330;9.104;2022-10-16T08:27:59;100861.91;;;16.67;93.42
3132;BME280;62090;52.330;9.104;2022-10-16T08:30:29;100863.63;;;16.71;93.64
3132;BME280;62090;52.330;9.104;2022-10-16T08:33:02;100872.22;;;16.70;93.30
3132;BME280;62090;52.330;9.104;2022-10-16T08:35:32;100857.56;;;16.57;93.56
3132;BME280;62090;52.330;9.104;2022-10-16T08:38:03;100871.34;;;16.71;92.66
3132;BME280;62090;52.330;9.104;2022-10-16T08:40:34;100863.63;;;16.59;93.47
3132;BME280;62090;52.330;9.104;2022-10-16T08:43:17;100879.09;;;16.76;92.47
3132;BME280;62090;52.330;9.104;2022-10-16T08:46:15;100834.41;;;16.51;92.16
3132;BME280;62090;52.330;9.104;2022-10-16T08:48:52;100864.47;;;16.67;93.17
3132;BME280;62090;52.330;9.104;2022-10-16T08:51:26;100886.81;;;16.79;93.71
3132;BME280;62090;52.330;9.104;2022-10-16T08:53:58;100885.94;;;16.92;93.16
3132;BME280;62090;52.330;9.104;2022-10-16T08:56:28;100885.97;;;16.91;93.74
3132;BME280;62090;52.330;9.104;2022-10-16T08:59:00;100888.56;;;16.97;93.88
3132;BME280;62090;52.330;9.104;2022-10-16T09:01:37;100892.81;;;17.04;93.00
3132;BME280;62090;52.330;9.104;2022-10-16T09:07:18;100920.28;;;17.50;90.82
3132;BME280;62090;52.330;9.104;2022-10-16T09:10:11;100928.03;;;17.64;88.92
3132;BME280;62090;52.330;9.104;2022-10-16T09:12:51;100922.00;;;17.45;89.32
3132;BME280;62090;52.330;9.104;2022-10-16T09:15:29;100895.41;;;17.26;89.35
3132;BME280;62090;52.330;9.104;2022-10-16T09:18:07;100930.59;;;17.35;89.34
3132;BME280;62090;52.330;9.104;2022-10-16T09:20:49;100928.88;;;17.25;89.01
3132;BME280;62090;52.330;9.104;2022-10-16T09:23:25;100937.47;;;17.15;89.19
3132;BME280;62090;52.330;9.104;2022-10-16T09:25:56;100904.84;;;16.89;89.91
3132;BME280;62090;52.330;9.104;2022-10-16T09:28:27;100929.75;;;17.27;89.91
3132;BME280;62090;52.330;9.104;2022-10-16T09:30:58;100916.00;;;17.16;89.07
3132;BME280;62090;52.330;9.104;2022-10-16T09:33:33;100931.47;;;17.29;90.31
3132;BME280;62090;52.330;9.104;2022-10-16T09:36:09;100938.34;;;17.44;90.43
3132;BME280;62090;52.330;9.104;2022-10-16T09:38:40;100922.03;;;17.39;89.70
3132;BME280;62090;52.330;9.104;2022-10-16T09:41:16;100889.41;;;17.27;88.70
3132;BME280;62090;52.330;9.104;2022-10-16T09:43:53;100928.88;;;17.67;87.36
3132;BME280;62090;52.330;9.104;2022-10-16T09:46:26;100948.63;;;17.82;86.93
3132;BME280;62090;52.330;9.104;2022-10-16T09:48:59;100958.03;;;18.00;86.92
3132;BME280;62090;52.330;9.104;2022-10-16T09:51:34;100953.72;;;18.19;83.01
3132;BME280;62090;52.330;9.104;2022-10-16T09:54:13;100948.56;;;18.05;82.43
3132;BME280;62090;52.330;9.104;2022-10-16T09:56:44;100959.78;;;17.95;82.95
3132;BME280;62090;52.330;9.104;2022-10-16T09:59:21;100966.63;;;17.99;80.97
3132;BME280;62090;52.330;9.104;2022-10-16T10:01:54;100970.94;;;18.07;80.65
3132;BME280;62090;52.330;9.104;2022-10-16T10:04:38;100946.88;;;17.96;80.79
3132;BME280;62090;52.330;9.104;2022-10-16T10:07:23;100945.16;;;17.95;81.67
3132;BME280;62090;52.330;9.104;2022-10-16T10:09:57;100958.81;;;18.26;81.45
3132;BME280;62090;52.330;9.104;2022-10-16T10:12:28;100902.19;;;17.94;80.91
3132;BME280;62090;52.330;9.104;2022-10-16T10:15:05;100948.44;;;18.43;80.74
3132;BME280;62090;52.330;9.104;2022-10-16T10:17:45;100945.81;;;18.53;79.82
3132;BME280;62090;52.330;9.104;2022-10-16T10:20:23;100957.00;;;18.46;81.43
3132;BME280;62090;52.330;9.104;2022-10-16T10:22:57;100970.81;;;18.44;82.44
3132;BME280;62090;52.330;9.104;2022-10-16T10:25:49;100965.66;;;18.42;81.24
3132;BME280;62090;52.330;9.104;2022-10-16T10:28:42;100967.38;;;18.45;80.23
3132;BME280;62090;52.330;9.104;2022-10-16T10:31:20;100962.28;;;18.22;79.90
3132;BME280;62090;52.330;9.104;2022-10-16T10:33:58;100987.28;;;18.08;80.47
3132;BME280;62090;52.330;9.104;2022-10-16T10:36:34;100933.13;;;17.99;81.08
3132;BME280;62090;52.330;9.104;2022-10-16T10:39:13;100996.66;;;18.32;81.21
3132;BME280;62090;52.330;9.104;2022-10-16T10:42:08;100989.75;;;18.35;80.67
3132;BME280;62090;52.330;9.104;2022-10-16T10:44:53;100978.56;;;18.39;79.44
3132;BME280;62090;52.330;9.104;2022-10-16T10:47:31;100941.66;;;18.22;79.70
3132;BME280;62090;52.330;9.104;2022-10-16T10:50:10;100983.69;;;18.61;79.19
3132;BME280;62090;52.330;9.104;2022-10-16T10:52:52;100983.66;;;18.58;78.69
3132;BME280;62090;52.330;9.104;2022-10-16T10:55:37;100987.97;;;18.51;79.28
3132;BME280;62090;52.330;9.104;2022-10-16T10:58:20;100933.81;;;18.40;75.26
3132;BME280;62090;52.330;9.104;2022-10-16T11:01:01;100986.97;;;18.84;76.93
3132;BME280;62090;52.330;9.104;2022-10-16T11:03:45;100986.03;;;19.02;73.79
3132;BME280;62090;52.330;9.104;2022-10-16T11:06:24;100996.34;;;19.03;73.88
3132;BME280;62090;52.330;9.104;2022-10-16T11:09:02;100988.63;;;18.95;73.63
3132;BME280;62090;52.330;9.104;2022-10-16T11:11:43;101003.28;;;18.98;73.19
3132;BME280;62090;52.330;9.104;2022-10-16T11:14:20;100997.31;;;18.84;73.66
3132;BME280;62090;52.330;9.104;2022-10-16T11:16:56;100998.97;;;18.95;73.23
3132;BME280;62090;52.330;9.104;2022-10-16T11:19:33;101004.94;;;19.08;73.23
3132;BME280;62090;52.330;9.104;2022-10-16T11:22:11;101016.97;;;19.14;72.94
3132;BME280;62090;52.330;9.104;2022-10-16T11:24:48;101019.59;;;19.03;72.41
3132;BME280;62090;52.330;9.104;2022-10-16T11:27:33;100990.41;;;18.92;72.62
3132;BME280;62090;52.330;9.104;2022-10-16T11:30:06;101012.66;;;19.10;72.73
3132;BME280;62090;52.330;9.104;2022-10-16T11:32:53;101016.06;;;19.16;72.08
3132;BME280;62090;52.330;9.104;2022-10-16T11:35:27;101002.34;;;19.08;72.13
3132;BME280;62090;52.330;9.104;2022-10-16T11:38:03;101022.19;;;19.00;72.30
3132;BME280;62090;52.330;9.104;2022-10-16T11:40:41;100988.75;;;18.73;73.03
3132;BME280;62090;52.330;9.104;2022-10-16T11:43:22;101017.09;;;18.85;73.23
3132;BME280;62090;52.330;9.104;2022-10-16T11:45:56;101017.06;;;18.95;74.54
3132;BME280;62090;52.330;9.104;2022-10-16T11:48:33;101023.88;;;19.04;73.85
3132;BME280;62090;52.330;9.104;2022-10-16T11:51:10;101028.94;;;19.19;72.52
3132;BME280;62090;52.330;9.104;2022-10-16T11:53:47;101036.72;;;19.18;73.64
3132;BME280;62090;52.330;9.104;2022-10-16T11:56:20;101025.59;;;19.04;74.08
3132;BME280;62090;52.330;9.104;2022-10-16T11:58:57;101037.59;;;19.17;75.43
3132;BME280;62090;52.330;9.104;2022-10-16T12:01:33;101029.81;;;19.24;74.80
3132;BME280;62090;52.330;9.104;2022-10-16T12:04:18;101033.19;;;19.31;75.34
3132;BME280;62090;52.330;9.104;2022-10-16T12:06:55;100977.41;;;19.01;76.18
3132;BME280;62090;52.330;9.104;2022-10-16T12:09:29;101033.16;;;19.38;74.13
3132;BME280;62090;52.330;9.104;2022-10-16T12:12:01;101024.69;;;19.18;73.42
3132;BME280;62090;52.330;9.104;2022-10-16T12:14:39;101028.84;;;19.37;72.80
3132;BME280;62090;52.330;9.104;2022-10-16T12:17:36;101032.25;;;19.42;73.30
3132;BME280;62090;52.330;9.104;2022-10-16T12:20:29;101034.88;;;19.39;74.24
3132;BME280;62090;52.330;9.104;2022-10-16T12:23:06;101016.81;;;19.33;73.89
3132;BME280;62090;52.330;9.104;2022-10-16T12:25:38;101039.09;;;19.54;71.74
3132;BME280;62090;52.330;9.104;2022-10-16T12:28:19;101039.88;;;19.64;70.91
3132;BME280;62090;52.330;9.104;2022-10-16T12:30:59;101044.28;;;19.51;71.51
3132;BME280;62090;52.330;9.104;2022-10-16T12:33:30;101007.25;;;19.43;71.86
3132;BME280;62090;52.330;9.104;2022-10-16T12:36:03;101023.59;;;19.51;71.19
3132;BME280;62090;52.330;9.104;2022-10-16T12:38:44;101045.94;;;19.58;71.47
3132;BME280;62090;52.330;9.104;2022-10-16T12:41:25;101039.88;;;19.64;69.12
3132;BME280;62090;52.330;9.104;2022-10-16T12:43:58;101053.63;;;19.69;69.86
3132;BME280;62090;52.330;9.104;2022-10-16T12:46:39;101060.38;;;19.85;69.65
3132;BME280;62090;52.330;9.104;2022-10-16T12:49:31;101067.22;;;19.92;71.05
3132;BME280;62090;52.330;9.104;2022-10-16T12:52:02;101065.47;;;19.97;71.46
3132;BME280;62090;52.330;9.104;2022-10-16T12:54:36;101051.72;;;19.89;71.05
3132;BME280;62090;52.330;9.104;2022-10-16T12:57:29;101037.91;;;19.92;68.52
3132;BME280;62090;52.330;9.104;2022-10-16T13:00:12;101037.91;;;19.93;69.44
3132;BME280;62090;52.330;9.104;2022-10-16T13:03:30;101054.44;;;19.75;68.59
3132;BME280;62090;52.330;9.104;2022-10-16T13:06:15;101029.25;;;19.94;69.71
3132;BME280;62090;52.330;9.104;2022-10-16T13:09:11;101067.00;;;20.15;67.55
3132;BME280;62090;52.330;9.104;2022-10-16T13:12:00;101053.28;;;20.08;69.09
3132;BME280;62090;52.330;9.104;2022-10-16T13:14:50;101074.00;;;20.08;67.56
3132;BME280;62090;52.330;9.104;2022-10-16T13:17:28;101071.31;;;20.19;68.28
3132;BME280;62090;52.330;9.104;2022-10-16T13:20:12;101084.88;;;20.42;65.68
3132;BME280;62090;52.330;9.104;2022-10-16T13:22:57;101089.13;;;20.51;65.58
3132;BME280;62090;52.330;9.104;2022-10-16T13:25:43;101091.84;;;20.37;64.01
3132;BME280;62090;52.330;9.104;2022-10-16T13:28:20;101080.78;;;20.18;64.73
3132;BME280;62090;52.330;9.104;2022-10-16T13:30:53;101099.72;;;20.23;65.28
3132;BME280;62090;52.330;9.104;2022-10-16T13:33:31;101090.44;;;20.00;66.34
3132;BME280;62090;52.330;9.104;2022-10-16T13:36:06;101092.25;;;19.92;66.32